Time;durP1;ratioP1;P1;durP2;ratioP2;P2;SDS_P1;SDS_P2;PMS_P1;PMS_P2;Temp;Humidity;BMP_temperature;BMP_pressure;BME280_temperature;BME280_humidity;BME280_pressure;Samples;Min_cycle;Max_cycle;Signal;HPM_P1;HPM_P2
2023/05/28 00:01:44;;;;;;;34.38;9.10;;;;;;;;;;4989945;28;99596;-74
2023/05/28 00:04:10;;;;;;;32.70;9.82;;;;;;;;;;4989770;28;99982;-74
2023/05/28 00:06:37;;;;;;;38.50;9.48;;;;;;;;;;4988567;28;98260;-73
2023/05/28 00:09:03;;;;;;;27.88;9.20;;;;;;;;;;4990281;28;98688;-74
2023/05/28 00:11:29;;;;;;;27.55;8.52;;;;;;;;;;4989900;28;99940;-73
2023/05/28 00:13:56;;;;;;;23.77;8.70;;;;;;;;;;4989287;28;98380;-73
2023/05/28 00:16:23;;;;;;;28.85;9.70;;;;;;;;;;4992582;28;99937;-75
2023/05/28 00:18:49;;;;;;;38.47;9.85;;;;;;;;;;4989298;28;98212;-74
2023/05/28 00:21:16;;;;;;;32.60;10.18;;;;;;;;;;4989474;28;99452;-74
2023/05/28 00:23:42;;;;;;;25.25;9.45;;;;;;;;;;4989342;28;100414;-73
2023/05/28 00:26:09;;;;;;;32.35;9.93;;;;;;;;;;4989174;28;98340;-73
2023/05/28 00:28:36;;;;;;;42.53;9.80;;;;;;;;;;4988022;28;99410;-73
2023/05/28 00:31:03;;;;;;;26.65;9.63;;;;;;;;;;4987858;28;100712;-74
2023/05/28 00:33:30;;;;;;;31.08;9.98;;;;;;;;;;4987836;28;99081;-74
2023/05/28 00:35:57;;;;;;;26.58;9.55;;;;;;;;;;4988272;28;99388;-75
2023/05/28 00:38:24;;;;;;;28.95;9.88;;;;;;;;;;4991453;28;99931;-74
2023/05/28 00:40:50;;;;;;;29.88;9.55;;;;;;;;;;4987811;28;100873;-73
2023/05/28 00:43:19;;;;;;;33.95;10.98;;;;;;;;;;4988695;28;99346;-73
2023/05/28 00:45:48;;;;;;;26.48;9.30;;;;;;;;;;4988465;28;98311;-73
2023/05/28 00:48:16;;;;;;;30.10;10.32;;;;;;;;;;4993354;28;99882;-74
2023/05/28 00:50:43;;;;;;;30.05;9.98;;;;;;;;;;4983551;28;102097;-73
2023/05/28 00:53:11;;;;;;;24.45;9.10;;;;;;;;;;4987348;28;98356;-73
2023/05/28 00:55:37;;;;;;;24.38;9.55;;;;;;;;;;4988663;28;98526;-73
2023/05/28 00:58:06;;;;;;;25.83;9.95;;;;;;;;;;4988708;28;100127;-73
2023/05/28 01:00:33;;;;;;;40.83;10.60;;;;;;;;;;4990485;28;98277;-73
2023/05/28 01:03:00;;;;;;;27.17;9.95;;;;;;;;;;4988380;28;98861;-73
2023/05/28 01:05:26;;;;;;;28.63;11.43;;;;;;;;;;4988929;28;98253;-73
2023/05/28 01:07:53;;;;;;;36.45;9.43;;;;;;;;;;4987860;28;101233;-73
2023/05/28 01:10:20;;;;;;;24.38;9.77;;;;;;;;;;4988080;28;98778;-74
2023/05/28 01:12:49;;;;;;;29.60;9.70;;;;;;;;;;4987461;28;98447;-73
2023/05/28 01:15:16;;;;;;;32.22;9.23;;;;;;;;;;4988463;28;99870;-73
2023/05/28 01:17:44;;;;;;;34.00;10.38;;;;;;;;;;4987149;28;99801;-74
2023/05/28 01:20:13;;;;;;;23.88;9.98;;;;;;;;;;4988967;28;98638;-73
2023/05/28 01:22:45;;;;;;;28.80;10.00;;;;;;;;;;4990329;28;98716;-73
2023/05/28 01:25:12;;;;;;;;;;;;;;;;;;4986816;28;98360;-73
2023/05/28 01:27:40;;;;;;;32.13;10.57;;;;;;;;;;4988301;28;126546;-72
2023/05/28 01:30:09;;;;;;;40.03;11.25;;;;;;;;;;4987613;28;99073;-73
2023/05/28 01:32:36;;;;;;;27.73;9.82;;;;;;;;;;4985427;28;99061;-73
2023/05/28 01:35:04;;;;;;;29.40;9.30;;;;;;;;;;4984255;28;99417;-74
2023/05/28 01:37:33;;;;;;;29.83;11.00;;;;;;;;;;4985933;28;101467;-74
2023/05/28 01:40:02;;;;;;;27.20;9.82;;;;;;;;;;4988709;28;98221;-74
2023/05/28 01:42:33;;;;;;;33.85;11.18;;;;;;;;;;4985896;28;98865;-73
2023/05/28 01:45:00;;;;;;;29.00;9.98;;;;;;;;;;4989634;28;100871;-73
2023/05/28 01:47:33;;;;;;;30.00;10.27;;;;;;;;;;4986792;28;100816;-73
2023/05/28 01:50:00;;;;;;;28.75;9.93;;;;;;;;;;4986851;28;101719;-73
2023/05/28 01:52:27;;;;;;;24.75;9.93;;;;;;;;;;4986222;28;98434;-74
2023/05/28 01:54:54;;;;;;;28.45;9.82;;;;;;;;;;4988705;28;98496;-74
2023/05/28 01:57:21;;;;;;;31.23;10.65;;;;;;;;;;4986619;28;99879;-73
2023/05/28 01:59:48;;;;;;;27.80;10.07;;;;;;;;;;4985657;28;98447;-74
2023/05/28 02:02:15;;;;;;;21.30;10.00;;;;;;;;;;4986804;28;99074;-73
2023/05/28 02:04:41;;;;;;;29.35;10.65;;;;;;;;;;4986704;28;101338;-73
2023/05/28 02:07:08;;;;;;;34.33;11.18;;;;;;;;;;4989919;28;98413;-72
2023/05/28 02:09:34;;;;;;;24.90;9.77;;;;;;;;;;4986007;28;101208;-73
2023/05/28 02:12:02;;;;;;;33.28;11.32;;;;;;;;;;4986777;28;99666;-74
2023/05/28 02:14:29;;;;;;;35.45;9.88;;;;;;;;;;4985251;28;101393;-73
2023/05/28 02:16:56;;;;;;;28.58;11.25;;;;;;;;;;4987396;28;99094;-72
2023/05/28 02:19:24;;;;;;;24.02;9.57;;;;;;;;;;4986818;28;99980;-74
2023/05/28 02:21:51;;;;;;;27.95;10.27;;;;;;;;;;4986788;28;98525;-72
2023/05/28 02:24:18;;;;;;;28.75;10.18;;;;;;;;;;4985798;28;100922;-73
2023/05/28 02:26:44;;;;;;;25.85;10.10;;;;;;;;;;4990812;28;99540;-73
2023/05/28 02:29:11;;;;;;;25.63;9.65;;;;;;;;;;4987418;28;99277;-73
2023/05/28 02:31:37;;;;;;;22.63;10.25;;;;;;;;;;4985592;28;98396;-73
2023/05/28 02:34:04;;;;;;;25.45;11.73;;;;;;;;;;4985241;28;98905;-73
2023/05/28 02:36:32;;;;;;;28.48;9.40;;;;;;;;;;4985895;28;98800;-73
2023/05/28 02:38:59;;;;;;;25.00;9.65;;;;;;;;;;4983362;28;98232;-73
2023/05/28 02:41:26;;;;;;;31.85;10.10;;;;;;;;;;4984039;28;101443;-74
2023/05/28 02:43:55;;;;;;;22.27;10.20;;;;;;;;;;4986626;28;99753;-74
2023/05/28 02:46:22;;;;;;;31.42;10.88;;;;;;;;;;4986237;28;98215;-73
2023/05/28 02:48:49;;;;;;;27.95;10.63;;;;;;;;;;4987158;28;98138;-73
2023/05/28 02:51:18;;;;;;;25.13;10.73;;;;;;;;;;4984642;28;98244;-73
2023/05/28 02:54:01;;;;;;;23.00;10.45;;;;;;;;;;4984493;28;99572;-73
2023/05/28 02:56:27;;;;;;;25.73;10.23;;;;;;;;;;4982860;28;99967;-73
2023/05/28 02:58:55;;;;;;;27.33;10.50;;;;;;;;;;4984568;28;99631;-73
2023/05/28 03:01:22;;;;;;;24.52;9.85;;;;;;;;;;4984550;28;98567;-73
2023/05/28 03:03:50;;;;;;;28.77;10.93;;;;;;;;;;4983991;28;101760;-74
2023/05/28 03:06:17;;;;;;;40.63;10.60;;;;;;;;;;4984335;28;98092;-73
2023/05/28 03:08:52;;;;;;;26.90;10.48;;;;;;;;;;4984077;28;100416;-73
2023/05/28 03:11:21;;;;;;;30.57;10.97;;;;;;;;;;4988633;28;101774;-73
2023/05/28 03:13:48;;;;;;;26.90;11.75;;;;;;;;;;4990585;28;98284;-73
2023/05/28 03:16:16;;;;;;;38.47;13.25;;;;;;;;;;4987151;28;100153;-73
2023/05/28 03:18:43;;;;;;;29.35;10.38;;;;;;;;;;4988543;28;99815;-73
2023/05/28 03:21:10;;;;;;;21.95;10.82;;;;;;;;;;4987667;28;100720;-74
2023/05/28 03:23:37;;;;;;;27.65;10.77;;;;;;;;;;4988603;28;98616;-74
2023/05/28 03:26:23;;;;;;;27.80;12.25;;;;;;;;;;4988770;28;99877;-75
2023/05/28 03:28:51;;;;;;;27.70;12.80;;;;;;;;;;4988960;28;101116;-74
2023/05/28 03:31:28;;;;;;;33.72;12.45;;;;;;;;;;4989750;28;100577;-73
2023/05/28 03:33:56;;;;;;;29.90;12.23;;;;;;;;;;4952764;28;1132025;-73
2023/05/28 03:36:24;;;;;;;34.10;13.20;;;;;;;;;;4988951;28;99069;-74
2023/05/28 03:38:51;;;;;;;29.17;12.15;;;;;;;;;;4989939;28;98225;-74
2023/05/28 03:41:17;;;;;;;27.77;10.95;;;;;;;;;;4989068;28;99767;-73
2023/05/28 03:43:44;;;;;;;24.17;11.38;;;;;;;;;;4988720;28;98974;-74
2023/05/28 03:46:11;;;;;;;29.27;12.20;;;;;;;;;;4987843;28;98430;-72
2023/05/28 03:48:38;;;;;;;27.17;11.55;;;;;;;;;;4988880;28;99885;-73
2023/05/28 03:51:06;;;;;;;26.77;10.98;;;;;;;;;;4988981;28;101450;-73
2023/05/28 03:53:33;;;;;;;24.35;11.15;;;;;;;;;;4987538;28;98440;-72
2023/05/28 03:56:01;;;;;;;28.85;11.48;;;;;;;;;;4991744;28;99439;-73
2023/05/28 03:58:28;;;;;;;27.17;11.35;;;;;;;;;;4987800;28;98440;-74
2023/05/28 04:00:56;;;;;;;28.52;11.77;;;;;;;;;;4988788;28;101812;-74
2023/05/28 04:03:23;;;;;;;26.90;10.75;;;;;;;;;;4988201;28;101133;-73
2023/05/28 04:05:50;;;;;;;26.65;11.43;;;;;;;;;;4989696;28;99630;-74
2023/05/28 04:08:21;;;;;;;29.67;11.70;;;;;;;;;;4988230;28;99446;-74
2023/05/28 04:10:47;;;;;;;29.23;11.07;;;;;;;;;;4987991;28;101749;-75
2023/05/28 04:13:14;;;;;;;23.17;10.40;;;;;;;;;;4987240;28;98311;-73
2023/05/28 04:15:40;;;;;;;23.63;10.70;;;;;;;;;;4988928;28;101411;-74
2023/05/28 04:18:06;;;;;;;27.42;10.45;;;;;;;;;;4991807;28;98336;-74
2023/05/28 04:20:35;;;;;;;26.67;11.25;;;;;;;;;;4989032;28;98781;-74
2023/05/28 04:23:03;;;;;;;30.40;11.15;;;;;;;;;;4989261;28;98984;-74
2023/05/28 04:25:29;;;;;;;27.05;10.25;;;;;;;;;;4987920;28;98316;-73
2023/05/28 04:27:58;;;;;;;22.45;10.80;;;;;;;;;;4987770;28;100797;-74
2023/05/28 04:30:24;;;;;;;27.27;10.23;;;;;;;;;;4988099;28;101485;-73
2023/05/28 04:32:51;;;;;;;21.77;9.68;;;;;;;;;;4981171;28;98178;-73
2023/05/28 04:35:18;;;;;;;20.65;9.98;;;;;;;;;;4986598;28;99523;-73
2023/05/28 04:37:46;;;;;;;24.02;9.73;;;;;;;;;;4991296;28;98961;-73
2023/05/28 04:40:12;;;;;;;24.65;10.18;;;;;;;;;;4983166;28;99467;-73
2023/05/28 04:42:42;;;;;;;17.88;10.05;;;;;;;;;;4986957;28;101549;-74
2023/05/28 04:45:09;;;;;;;38.20;10.05;;;;;;;;;;4984750;28;98201;-73
2023/05/28 04:47:39;;;;;;;35.63;11.55;;;;;;;;;;4987049;28;99657;-74
2023/05/28 04:50:06;;;;;;;24.63;9.90;;;;;;;;;;5004076;28;99989;-74
2023/05/28 04:52:35;;;;;;;15.55;9.30;;;;;;;;;;4989022;28;98190;-74
2023/05/28 04:55:03;;;;;;;22.25;10.00;;;;;;;;;;4988439;28;98560;-73
2023/05/28 04:57:30;;;;;;;22.13;10.60;;;;;;;;;;4987547;28;101294;-74
2023/05/28 04:59:56;;;;;;;22.35;10.23;;;;;;;;;;4989914;28;98307;-74
2023/05/28 05:02:23;;;;;;;25.75;9.15;;;;;;;;;;4988149;28;98716;-74
2023/05/28 05:04:50;;;;;;;20.80;9.23;;;;;;;;;;4987878;28;98038;-73
2023/05/28 05:07:18;;;;;;;23.55;9.98;;;;;;;;;;4986939;28;100997;-73
2023/05/28 05:09:44;;;;;;;25.15;10.32;;;;;;;;;;4986839;28;99037;-73
2023/05/28 05:12:11;;;;;;;22.60;10.00;;;;;;;;;;4987402;28;98469;-73
2023/05/28 05:14:38;;;;;;;21.38;8.65;;;;;;;;;;4987425;28;100513;-73
2023/05/28 05:17:06;;;;;;;24.63;9.35;;;;;;;;;;4986775;28;101304;-73
2023/05/28 05:19:33;;;;;;;20.13;8.95;;;;;;;;;;4987166;28;98533;-73
2023/05/28 05:22:00;;;;;;;25.85;9.15;;;;;;;;;;4990813;28;101073;-73
2023/05/28 05:24:29;;;;;;;18.30;8.23;;;;;;;;;;4985802;28;98328;-73
2023/05/28 05:26:55;;;;;;;22.70;8.80;;;;;;;;;;4987502;28;101326;-73
2023/05/28 05:29:22;;;;;;;24.20;9.95;;;;;;;;;;4986810;28;101503;-74
2023/05/28 05:31:49;;;;;;;20.30;8.82;;;;;;;;;;4978136;28;98266;-74
2023/05/28 05:34:16;;;;;;;16.30;8.98;;;;;;;;;;4986257;28;100484;-74
2023/05/28 05:37:14;;;;;;;17.75;8.10;;;;;;;;;;4986066;28;100291;-74
2023/05/28 05:40:05;;;;;;;22.88;9.10;;;;;;;;;;4980355;28;98268;-73
2023/05/28 05:42:53;;;;;;;22.35;8.68;;;;;;;;;;4986370;28;101017;-73
2023/05/28 05:45:19;;;;;;;17.35;8.25;;;;;;;;;;4989523;28;98971;-73
2023/05/28 05:47:46;;;;;;;30.48;8.65;;;;;;;;;;4986622;28;100535;-73
2023/05/28 05:50:12;;;;;;;19.00;8.80;;;;;;;;;;4986547;28;100282;-74
2023/05/28 05:52:41;;;;;;;19.30;8.25;;;;;;;;;;4983743;28;99081;-73
2023/05/28 05:55:07;;;;;;;17.92;8.25;;;;;;;;;;4986420;28;100746;-73
2023/05/28 05:57:36;;;;;;;17.75;8.07;;;;;;;;;;4986832;28;98908;-73
2023/05/28 06:00:05;;;;;;;18.25;8.50;;;;;;;;;;4985933;28;98569;-73
2023/05/28 06:02:38;;;;;;;20.52;7.20;;;;;;;;;;4981465;28;98169;-74
2023/05/28 06:05:25;;;;;;;20.73;8.15;;;;;;;;;;4979245;28;98629;-74
2023/05/28 06:08:15;;;;;;;18.70;7.90;;;;;;;;;;4978599;28;99048;-73
2023/05/28 06:11:08;;;;;;;15.15;6.97;;;;;;;;;;4985421;28;99174;-73
2023/05/28 06:13:35;;;;;;;18.80;7.22;;;;;;;;;;4987261;28;98709;-74
2023/05/28 06:16:02;;;;;;;15.57;7.30;;;;;;;;;;4986484;28;101139;-73
2023/05/28 06:18:29;;;;;;;19.00;7.88;;;;;;;;;;4989287;28;101777;-75
2023/05/28 06:20:57;;;;;;;18.40;7.65;;;;;;;;;;4984773;28;98379;-76
2023/05/28 06:23:24;;;;;;;19.23;7.85;;;;;;;;;;4985466;28;99522;-73
2023/05/28 06:25:51;;;;;;;16.42;7.75;;;;;;;;;;4983425;28;101382;-73
2023/05/28 06:28:18;;;;;;;16.85;7.40;;;;;;;;;;5004246;28;99038;-74
2023/05/28 06:30:44;;;;;;;19.13;7.28;;;;;;;;;;4985193;28;101501;-73
2023/05/28 06:33:11;;;;;;;19.35;7.75;;;;;;;;;;4985488;28;98249;-73
2023/05/28 06:35:39;;;;;;;18.83;7.57;;;;;;;;;;4985156;28;99983;-72
2023/05/28 06:38:06;;;;;;;18.00;7.75;;;;;;;;;;4985983;28;99116;-72
2023/05/28 06:40:32;;;;;;;16.75;7.35;;;;;;;;;;4980513;28;98598;-73
2023/05/28 06:43:00;;;;;;;19.70;8.15;;;;;;;;;;4986345;28;98532;-73
2023/05/28 06:45:42;;;;;;;17.23;7.18;;;;;;;;;;4981591;28;101683;-74
2023/05/28 06:48:11;;;;;;;13.95;7.68;;;;;;;;;;4983910;28;98288;-73
2023/05/28 06:50:37;;;;;;;17.00;7.40;;;;;;;;;;4988613;28;99370;-75
2023/05/28 06:53:04;;;;;;;18.23;7.75;;;;;;;;;;4981415;28;98155;-72
2023/05/28 06:55:32;;;;;;;16.58;7.53;;;;;;;;;;4981370;28;100745;-73
2023/05/28 06:58:16;;;;;;;20.80;7.65;;;;;;;;;;4981101;28;98641;-74
2023/05/28 07:01:03;;;;;;;16.33;8.07;;;;;;;;;;4981981;28;98191;-74
2023/05/28 07:03:44;;;;;;;17.75;7.25;;;;;;;;;;4986651;28;98242;-75
2023/05/28 07:06:17;;;;;;;19.35;7.65;;;;;;;;;;4984845;28;101774;-76
2023/05/28 07:08:44;;;;;;;17.58;8.20;;;;;;;;;;4983167;28;99946;-77
2023/05/28 07:11:13;;;;;;;17.23;7.45;;;;;;;;;;5002016;28;100711;-78
2023/05/28 07:13:44;;;;;;;18.55;7.50;;;;;;;;;;4982226;28;101777;-79
2023/05/28 07:16:11;;;;;;;18.80;7.03;;;;;;;;;;4982974;28;100837;-76
2023/05/28 07:18:38;;;;;;;17.67;7.82;;;;;;;;;;4979858;28;101985;-79
2023/05/28 07:21:05;;;;;;;22.30;8.13;;;;;;;;;;4980635;28;99590;-79
2023/05/28 07:23:37;;;;;;;18.83;7.28;;;;;;;;;;4984855;28;100919;-76
2023/05/28 07:26:06;;;;;;;18.13;7.97;;;;;;;;;;4981837;28;101317;-76
2023/05/28 07:28:32;;;;;;;20.00;7.88;;;;;;;;;;4997797;28;97979;-75
2023/05/28 07:31:01;;;;;;;15.93;7.60;;;;;;;;;;4994090;28;100228;-76
2023/05/28 07:33:27;;;;;;;16.15;7.35;;;;;;;;;;4987847;28;102207;-78
2023/05/28 07:35:54;;;;;;;29.50;8.38;;;;;;;;;;4978447;28;98366;-77
2023/05/28 07:38:20;;;;;;;13.60;6.55;;;;;;;;;;4974329;28;102168;-77
2023/05/28 07:40:51;;;;;;;16.20;7.05;;;;;;;;;;4984968;28;98729;-77
2023/05/28 07:43:38;;;;;;;16.27;7.75;;;;;;;;;;4984881;28;98249;-77
2023/05/28 07:46:11;;;;;;;16.95;7.30;;;;;;;;;;4970807;28;100845;-77
2023/05/28 07:48:43;;;;;;;17.98;7.43;;;;;;;;;;4980079;28;99191;-77
2023/05/28 07:51:21;;;;;;;16.98;7.57;;;;;;;;;;4979767;28;99631;-78
2023/05/28 07:53:59;;;;;;;14.40;6.03;;;;;;;;;;4985074;28;101164;-76
2023/05/28 07:56:27;;;;;;;11.13;6.28;;;;;;;;;;4984522;28;98320;-76
2023/05/28 07:58:55;;;;;;;13.90;6.75;;;;;;;;;;4990734;28;100541;-77
2023/05/28 08:01:23;;;;;;;17.52;6.55;;;;;;;;;;4984600;28;98088;-76
2023/05/28 08:03:53;;;;;;;20.80;6.30;;;;;;;;;;4984968;28;98586;-77
2023/05/28 08:06:24;;;;;;;15.93;7.10;;;;;;;;;;4987304;28;100139;-78
2023/05/28 08:08:50;;;;;;;14.15;6.30;;;;;;;;;;4976302;28;100250;-77
2023/05/28 08:11:17;;;;;;;18.63;6.65;;;;;;;;;;4979058;28;101083;-76
2023/05/28 08:13:45;;;;;;;16.38;6.95;;;;;;;;;;4987155;28;100921;-76
2023/05/28 08:16:12;;;;;;;14.00;6.57;;;;;;;;;;4986561;28;98260;-76
2023/05/28 08:18:59;;;;;;;14.18;7.00;;;;;;;;;;4984456;28;99508;-75
2023/05/28 08:21:27;;;;;;;18.77;6.78;;;;;;;;;;4990047;28;101617;-75
2023/05/28 08:23:54;;;;;;;16.05;7.20;;;;;;;;;;4988591;28;100829;-74
2023/05/28 08:26:21;;;;;;;14.45;6.88;;;;;;;;;;4986667;28;101679;-75
2023/05/28 08:28:48;;;;;;;17.58;6.40;;;;;;;;;;4989927;28;99818;-77
2023/05/28 08:31:14;;;;;;;19.83;6.78;;;;;;;;;;4981270;28;101081;-76
2023/05/28 08:34:05;;;;;;;29.67;7.63;;;;;;;;;;4981613;28;101037;-78
2023/05/28 08:36:32;;;;;;;16.55;6.43;;;;;;;;;;4986870;28;98412;-77
2023/05/28 08:39:00;;;;;;;15.27;6.90;;;;;;;;;;4981396;28;100772;-76
2023/05/28 08:41:29;;;;;;;10.98;5.93;;;;;;;;;;4990589;28;101722;-74
2023/05/28 08:43:55;;;;;;;18.73;6.50;;;;;;;;;;4984986;28;99106;-76
2023/05/28 08:46:22;;;;;;;13.60;6.43;;;;;;;;;;4982904;28;100066;-74
2023/05/28 08:49:17;;;;;;;16.20;6.55;;;;;;;;;;4986942;28;98160;-75
2023/05/28 08:51:44;;;;;;;22.45;7.18;;;;;;;;;;4988944;28;98258;-76
2023/05/28 08:54:14;;;;;;;14.05;6.68;;;;;;;;;;4984833;28;98909;-76
2023/05/28 08:56:41;;;;;;;18.20;6.90;;;;;;;;;;4986748;28;98257;-75
2023/05/28 08:59:10;;;;;;;23.23;8.20;;;;;;;;;;4979505;28;100760;-77
2023/05/28 09:01:37;;;;;;;13.43;5.95;;;;;;;;;;4986257;28;98952;-77
2023/05/28 09:04:06;;;;;;;20.38;7.80;;;;;;;;;;4989521;28;99490;-75
2023/05/28 09:06:37;;;;;;;20.57;7.03;;;;;;;;;;4981704;28;100131;-75
2023/05/28 09:09:07;;;;;;;14.55;6.60;;;;;;;;;;4984241;28;98291;-76
2023/05/28 09:11:39;;;;;;;14.15;6.18;;;;;;;;;;4986652;28;99862;-76
2023/05/28 09:14:10;;;;;;;13.82;7.25;;;;;;;;;;4986929;28;101292;-76
2023/05/28 09:16:41;;;;;;;19.77;8.32;;;;;;;;;;4974757;28;98348;-76
2023/05/28 09:19:15;;;;;;;21.40;7.38;;;;;;;;;;4979508;28;101374;-77
2023/05/28 09:21:57;;;;;;;19.88;7.25;;;;;;;;;;4987237;28;101551;-76
2023/05/28 09:24:32;;;;;;;18.77;6.68;;;;;;;;;;4986356;28;98257;-76
2023/05/28 09:27:34;;;;;;;19.08;7.30;;;;;;;;;;4967543;28;99165;-77
2023/05/28 09:30:02;;;;;;;21.20;7.63;;;;;;;;;;4982299;28;98337;-75
2023/05/28 09:32:28;;;;;;;12.82;6.97;;;;;;;;;;4986357;28;98762;-76
2023/05/28 09:34:57;;;;;;;10.98;5.97;;;;;;;;;;4977358;28;99274;-76
2023/05/28 09:37:27;;;;;;;13.05;6.43;;;;;;;;;;4983438;28;98465;-77
2023/05/28 09:40:09;;;;;;;14.80;6.57;;;;;;;;;;4988310;28;99608;-77
2023/05/28 09:42:40;;;;;;;18.45;6.60;;;;;;;;;;4979769;28;100196;-77
2023/05/28 09:45:11;;;;;;;16.95;5.85;;;;;;;;;;4987731;28;98158;-76
2023/05/28 09:47:43;;;;;;;16.23;6.18;;;;;;;;;;4987757;28;98500;-76
2023/05/28 09:50:10;;;;;;;14.60;6.13;;;;;;;;;;4979850;28;98861;-76
2023/05/28 09:52:42;;;;;;;17.05;6.15;;;;;;;;;;4977329;28;99258;-78
2023/05/28 09:55:10;;;;;;;16.00;6.35;;;;;;;;;;4988193;28;99950;-76
2023/05/28 09:57:39;;;;;;;16.38;5.28;;;;;;;;;;4987334;28;98295;-75
2023/05/28 10:00:19;;;;;;;12.43;5.88;;;;;;;;;;4981241;28;99746;-76
2023/05/28 10:02:58;;;;;;;15.15;5.82;;;;;;;;;;4985851;28;98917;-77
2023/05/28 10:05:26;;;;;;;16.13;5.85;;;;;;;;;;4978330;28;98847;-76
2023/05/28 10:07:53;;;;;;;10.20;5.15;;;;;;;;;;4987960;28;99763;-77
2023/05/28 10:10:20;;;;;;;11.52;5.40;;;;;;;;;;4986044;28;99912;-77
2023/05/28 10:12:47;;;;;;;17.23;5.68;;;;;;;;;;4984661;28;98507;-77
2023/05/28 10:15:14;;;;;;;14.20;5.78;;;;;;;;;;4985264;28;100198;-78
2023/05/28 10:17:41;;;;;;;20.73;6.28;;;;;;;;;;4986547;28;98836;-77
2023/05/28 10:20:10;;;;;;;11.57;5.45;;;;;;;;;;4983970;28;98521;-76
2023/05/28 10:22:40;;;;;;;15.50;6.07;;;;;;;;;;4979779;28;99921;-76
2023/05/28 10:25:08;;;;;;;18.33;6.40;;;;;;;;;;4986864;28;98253;-78
2023/05/28 10:27:35;;;;;;;13.13;5.95;;;;;;;;;;4986213;28;100028;-76
2023/05/28 10:30:03;;;;;;;12.38;5.78;;;;;;;;;;4987432;28;99161;-76
2023/05/28 10:32:37;;;;;;;13.13;5.28;;;;;;;;;;4985891;28;99076;-75
2023/05/28 10:35:03;;;;;;;15.50;5.47;;;;;;;;;;4990859;28;99774;-77
2023/05/28 10:37:30;;;;;;;10.38;4.97;;;;;;;;;;4982968;28;101068;-77
2023/05/28 10:39:56;;;;;;;13.63;6.10;;;;;;;;;;4980169;28;100846;-77
2023/05/28 10:42:22;;;;;;;13.75;5.53;;;;;;;;;;4981827;28;100486;-76
2023/05/28 10:44:49;;;;;;;12.90;5.90;;;;;;;;;;4986853;28;98232;-76
2023/05/28 10:47:19;;;;;;;14.27;4.75;;;;;;;;;;4972793;28;98536;-76
2023/05/28 10:50:08;;;;;;;17.70;5.82;;;;;;;;;;4983627;28;100050;-77
2023/05/28 10:52:38;;;;;;;12.40;4.35;;;;;;;;;;4977856;28;98540;-77
2023/05/28 10:55:06;;;;;;;12.27;5.32;;;;;;;;;;4987560;28;101662;-77
2023/05/28 10:57:40;;;;;;;10.55;4.50;;;;;;;;;;4983846;28;98564;-77
2023/05/28 11:00:13;;;;;;;12.80;4.90;;;;;;;;;;4976051;28;99620;-77
2023/05/28 11:02:41;;;;;;;13.00;5.53;;;;;;;;;;4975848;28;99857;-77
2023/05/28 11:05:09;;;;;;;12.30;5.20;;;;;;;;;;4979346;28;98267;-77
2023/05/28 11:07:36;;;;;;;11.82;5.13;;;;;;;;;;4985941;28;98750;-77
2023/05/28 11:10:07;;;;;;;14.15;5.03;;;;;;;;;;4986475;28;100235;-77
2023/05/28 11:12:38;;;;;;;14.88;5.90;;;;;;;;;;4987120;28;98136;-77
2023/05/28 11:15:05;;;;;;;13.20;5.40;;;;;;;;;;4985905;28;99538;-76
2023/05/28 11:17:42;;;;;;;14.13;5.72;;;;;;;;;;4983241;28;100229;-76
2023/05/28 11:20:18;;;;;;;10.88;5.30;;;;;;;;;;4977827;28;98519;-76
2023/05/28 11:22:44;;;;;;;13.82;5.40;;;;;;;;;;4979815;28;99962;-76
2023/05/28 11:25:12;;;;;;;12.82;6.00;;;;;;;;;;4988475;28;99946;-77
2023/05/28 11:27:40;;;;;;;15.00;5.60;;;;;;;;;;4982609;28;99744;-77
2023/05/28 11:30:08;;;;;;;15.95;4.85;;;;;;;;;;4981902;28;99305;-78
2023/05/28 11:32:35;;;;;;;12.43;5.63;;;;;;;;;;4996566;28;98112;-77
2023/05/28 11:35:01;;;;;;;16.20;5.35;;;;;;;;;;4988317;28;98385;-77
2023/05/28 11:37:33;;;;;;;9.63;4.43;;;;;;;;;;4990465;28;100619;-78
2023/05/28 11:40:00;;;;;;;13.20;5.80;;;;;;;;;;4993912;28;98407;-78
2023/05/28 11:42:28;;;;;;;16.08;4.57;;;;;;;;;;4980748;28;100058;-77
2023/05/28 11:44:55;;;;;;;13.95;5.28;;;;;;;;;;4990315;28;98556;-78
2023/05/28 11:47:23;;;;;;;17.08;5.35;;;;;;;;;;4989619;28;99306;-76
2023/05/28 11:49:49;;;;;;;10.00;5.13;;;;;;;;;;4981858;28;100366;-77
2023/05/28 11:52:18;;;;;;;11.30;5.22;;;;;;;;;;4986888;28;98201;-77
2023/05/28 11:54:46;;;;;;;15.15;5.93;;;;;;;;;;4984138;28;98776;-80
2023/05/28 11:57:24;;;;;;;12.32;5.10;;;;;;;;;;4986411;28;100030;-75
2023/05/28 11:59:54;;;;;;;15.93;4.90;;;;;;;;;;4987766;28;98730;-77
2023/05/28 12:02:21;;;;;;;14.02;4.90;;;;;;;;;;4988586;28;99762;-77
2023/05/28 12:04:59;;;;;;;9.98;5.05;;;;;;;;;;4980017;28;98547;-78
2023/05/28 12:07:32;;;;;;;10.63;5.30;;;;;;;;;;4987424;28;99650;-77
2023/05/28 12:10:05;;;;;;;14.63;6.25;;;;;;;;;;4987557;28;98673;-77
2023/05/28 12:12:33;;;;;;;16.05;6.20;;;;;;;;;;4985859;28;98779;-77
2023/05/28 12:15:03;;;;;;;16.15;5.35;;;;;;;;;;4983242;28;99388;-77
2023/05/28 12:17:36;;;;;;;12.07;5.25;;;;;;;;;;4988998;28;100232;-77
2023/05/28 12:20:04;;;;;;;15.50;6.80;;;;;;;;;;4989144;28;98222;-78
2023/05/28 12:22:32;;;;;;;12.90;5.53;;;;;;;;;;4985939;28;98604;-77
2023/05/28 12:24:58;;;;;;;14.55;5.65;;;;;;;;;;4987038;28;99550;-78
2023/05/28 12:27:25;;;;;;;14.48;5.65;;;;;;;;;;4980853;28;99350;-76
2023/05/28 12:29:51;;;;;;;12.77;5.25;;;;;;;;;;4985542;28;99031;-76
2023/05/28 12:32:19;;;;;;;10.93;5.07;;;;;;;;;;4985947;28;98196;-77
2023/05/28 12:34:45;;;;;;;13.43;5.72;;;;;;;;;;4988679;28;98716;-78
2023/05/28 12:37:12;;;;;;;14.30;5.13;;;;;;;;;;4989359;28;100056;-77
2023/05/28 12:39:39;;;;;;;11.57;5.55;;;;;;;;;;4983752;28;98397;-77
2023/05/28 12:42:06;;;;;;;11.93;5.13;;;;;;;;;;4987857;28;99719;-78
2023/05/28 12:44:32;;;;;;;14.48;5.15;;;;;;;;;;4980121;28;100142;-78
2023/05/28 12:46:59;;;;;;;8.65;5.20;;;;;;;;;;4991725;28;98181;-77
2023/05/28 12:49:25;;;;;;;10.82;5.63;;;;;;;;;;4980840;28;100667;-76
2023/05/28 12:51:52;;;;;;;16.63;5.70;;;;;;;;;;4988988;28;99537;-78
2023/05/28 12:54:18;;;;;;;19.00;5.80;;;;;;;;;;4985506;28;99401;-78
2023/05/28 12:56:45;;;;;;;10.25;5.10;;;;;;;;;;4987688;28;100362;-78
2023/05/28 12:59:25;;;;;;;15.45;6.07;;;;;;;;;;4981446;28;98000;-78
2023/05/28 13:01:51;;;;;;;12.10;4.80;;;;;;;;;;4982261;28;99537;-78
2023/05/28 13:04:18;;;;;;;8.93;5.22;;;;;;;;;;4989322;28;99215;-77
2023/05/28 13:06:45;;;;;;;13.88;5.07;;;;;;;;;;4992371;28;98912;-78
2023/05/28 13:09:12;;;;;;;11.45;4.97;;;;;;;;;;4980675;28;100208;-77
2023/05/28 13:11:39;;;;;;;16.00;5.38;;;;;;;;;;4986212;28;99190;-77
2023/05/28 13:14:06;;;;;;;13.77;5.70;;;;;;;;;;4978018;28;98561;-78
2023/05/28 13:16:33;;;;;;;11.52;5.50;;;;;;;;;;4977595;28;99324;-78
2023/05/28 13:19:01;;;;;;;9.25;4.95;;;;;;;;;;4983498;28;98263;-78
2023/05/28 13:21:29;;;;;;;12.70;5.07;;;;;;;;;;4975763;28;98603;-78
2023/05/28 13:23:55;;;;;;;9.00;5.40;;;;;;;;;;4985513;28;99951;-78
2023/05/28 13:26:22;;;;;;;8.43;4.40;;;;;;;;;;4986134;28;98301;-77
2023/05/28 13:28:48;;;;;;;12.52;5.03;;;;;;;;;;4983794;28;99749;-78
2023/05/28 13:31:15;;;;;;;13.52;5.85;;;;;;;;;;4984205;28;98313;-77
2023/05/28 13:33:41;;;;;;;10.77;5.00;;;;;;;;;;4982378;28;99370;-78
2023/05/28 13:36:08;;;;;;;10.82;5.85;;;;;;;;;;4987280;28;99406;-78
2023/05/28 13:38:34;;;;;;;16.17;5.32;;;;;;;;;;4982983;28;98739;-78
2023/05/28 13:41:02;;;;;;;13.23;5.78;;;;;;;;;;4984938;28;99285;-77
2023/05/28 13:43:30;;;;;;;7.75;4.82;;;;;;;;;;4982253;28;99546;-78
2023/05/28 13:45:58;;;;;;;11.15;5.50;;;;;;;;;;4986228;28;98269;-77
2023/05/28 13:48:25;;;;;;;10.07;4.88;;;;;;;;;;4987215;28;99659;-78
2023/05/28 13:50:52;;;;;;;12.50;5.40;;;;;;;;;;4988583;28;99257;-79
2023/05/28 13:53:19;;;;;;;9.77;5.70;;;;;;;;;;4986001;28;99885;-78
2023/05/28 13:55:45;;;;;;;14.15;5.30;;;;;;;;;;4981419;28;99706;-77
2023/05/28 13:58:12;;;;;;;8.40;4.97;;;;;;;;;;4986795;28;99682;-79
2023/05/28 14:00:38;;;;;;;7.35;4.65;;;;;;;;;;4984568;28;99473;-79
2023/05/28 14:03:05;;;;;;;10.27;4.47;;;;;;;;;;4981127;28;100207;-78
2023/05/28 14:05:33;;;;;;;8.57;5.20;;;;;;;;;;4985710;28;98677;-76
2023/05/28 14:08:00;;;;;;;13.95;4.45;;;;;;;;;;4985015;28;99745;-78
2023/05/28 14:10:28;;;;;;;10.68;4.63;;;;;;;;;;4981924;28;98987;-77
2023/05/28 14:12:55;;;;;;;11.18;4.38;;;;;;;;;;4990122;28;99056;-78
2023/05/28 14:15:22;;;;;;;7.88;4.90;;;;;;;;;;4986659;28;100050;-78
2023/05/28 14:17:49;;;;;;;11.57;4.95;;;;;;;;;;4986040;28;98380;-79
2023/05/28 14:20:16;;;;;;;11.85;4.78;;;;;;;;;;4983893;28;99396;-79
2023/05/28 14:22:44;;;;;;;9.32;4.95;;;;;;;;;;4981207;28;99492;-78
2023/05/28 14:25:11;;;;;;;9.75;4.28;;;;;;;;;;4982187;28;99928;-79
2023/05/28 14:27:37;;;;;;;7.30;4.38;;;;;;;;;;4979921;28;99512;-78
2023/05/28 14:30:05;;;;;;;7.88;4.28;;;;;;;;;;4977124;28;100085;-78
2023/05/28 14:32:32;;;;;;;7.25;4.75;;;;;;;;;;4983160;28;99081;-78
2023/05/28 14:34:59;;;;;;;6.03;3.90;;;;;;;;;;4990050;28;99543;-77